sensor_id;sensor_type;location;lat;lon;timestamp;pressure;altitude;pressure_sealevel;temperature;humidity
68807;BME280;55800;54.272;18.558;2023-03-11T00:02:02;98306.69;;;1.54;67.57
68807;BME280;55800;54.272;18.558;2023-03-11T00:04:31;98296.97;;;1.55;67.41
68807;BME280;55800;54.272;18.558;2023-03-11T00:07:00;98294.34;;;1.55;67.88
68807;BME280;55800;54.272;18.558;2023-03-11T00:09:30;98293.44;;;1.56;67.00
68807;BME280;55800;54.272;18.558;2023-03-11T00:12:01;98290.72;;;1.57;67.41
68807;BME280;55800;54.272;18.558;2023-03-11T00:14:31;98292.50;;;1.57;66.98
68807;BME280;55800;54.272;18.558;2023-03-11T00:17:00;98296.78;;;1.59;67.16
68807;BME280;55800;54.272;18.558;2023-03-11T00:19:31;98291.72;;;1.55;68.14
68807;BME280;55800;54.272;18.558;2023-03-11T00:22:01;98288.28;;;1.53;67.91
68807;BME280;55800;54.272;18.558;2023-03-11T00:24:31;98290.88;;;1.54;66.87
68807;BME280;55800;54.272;18.558;2023-03-11T00:27:01;98284.75;;;1.54;67.32
68807;BME280;55800;54.272;18.558;2023-03-11T00:29:31;98290.09;;;1.52;67.78
68807;BME280;55800;54.272;18.558;2023-03-11T00:32:00;98286.53;;;1.53;66.45
68807;BME280;55800;54.272;18.558;2023-03-11T00:34:30;98289.16;;;1.53;66.41
68807;BME280;55800;54.272;18.558;2023-03-11T00:37:00;98281.13;;;1.56;67.11
68807;BME280;55800;54.272;18.558;2023-03-11T00:39:30;98275.09;;;1.54;67.04
68807;BME280;55800;54.272;18.558;2023-03-11T00:41:59;98276.94;;;1.52;67.05
68807;BME280;55800;54.272;18.558;2023-03-11T00:44:30;98283.88;;;1.53;67.04
68807;BME280;55800;54.272;18.558;2023-03-11T00:47:01;98276.06;;;1.52;66.98
68807;BME280;55800;54.272;18.558;2023-03-11T00:49:30;98275.13;;;1.53;67.11
68807;BME280;55800;54.272;18.558;2023-03-11T00:52:00;98272.44;;;1.54;67.02
68807;BME280;55800;54.272;18.558;2023-03-11T00:54:29;98270.00;;;1.50;68.07
68807;BME280;55800;54.272;18.558;2023-03-11T00:56:59;98269.16;;;1.49;68.60
68807;BME280;55800;54.272;18.558;2023-03-11T00:59:30;98269.94;;;1.51;67.53
68807;BME280;55800;54.272;18.558;2023-03-11T01:01:59;98269.03;;;1.52;66.79
68807;BME280;55800;54.272;18.558;2023-03-11T01:04:29;98275.19;;;1.51;67.22
68807;BME280;55800;54.272;18.558;2023-03-11T01:06:58;98273.34;;;1.53;66.33
68807;BME280;55800;54.272;18.558;2023-03-11T01:09:27;98274.34;;;1.51;67.70
68807;BME280;55800;54.272;18.558;2023-03-11T01:11:57;98273.50;;;1.50;67.66
68807;BME280;55800;54.272;18.558;2023-03-11T01:14:26;98266.50;;;1.49;68.06
68807;BME280;55800;54.272;18.558;2023-03-11T01:16:57;98272.56;;;1.51;67.30
68807;BME280;55800;54.272;18.558;2023-03-11T01:19:26;98278.88;;;1.47;66.95
68807;BME280;55800;54.272;18.558;2023-03-11T01:21:55;98275.47;;;1.45;68.38
68807;BME280;55800;54.272;18.558;2023-03-11T01:24:25;98273.75;;;1.44;67.62
68807;BME280;55800;54.272;18.558;2023-03-11T01:26:54;98262.16;;;1.48;67.04
68807;BME280;55800;54.272;18.558;2023-03-11T01:29:24;98263.97;;;1.48;66.81
68807;BME280;55800;54.272;18.558;2023-03-11T01:31:55;98263.09;;;1.47;68.14
68807;BME280;55800;54.272;18.558;2023-03-11T01:34:26;98265.72;;;1.47;67.68
68807;BME280;55800;54.272;18.558;2023-03-11T01:36:55;98265.81;;;1.46;66.92
68807;BME280;55800;54.272;18.558;2023-03-11T01:39:25;98277.31;;;1.43;68.27
68807;BME280;55800;54.272;18.558;2023-03-11T01:41:54;98264.28;;;1.40;68.28
68807;BME280;55800;54.272;18.558;2023-03-11T01:44:24;98257.94;;;1.44;68.23
68807;BME280;55800;54.272;18.558;2023-03-11T01:50:13;98261.78;;;1.37;68.58
68807;BME280;55800;54.272;18.558;2023-03-11T01:52:43;98266.91;;;1.40;67.33
68807;BME280;55800;54.272;18.558;2023-03-11T01:55:14;98265.22;;;1.39;67.73
68807;BME280;55800;54.272;18.558;2023-03-11T01:57:46;98266.91;;;1.40;67.92
68807;BME280;55800;54.272;18.558;2023-03-11T02:00:16;98259.97;;;1.38;68.83
68807;BME280;55800;54.272;18.558;2023-03-11T02:02:49;98265.31;;;1.36;67.51
68807;BME280;55800;54.272;18.558;2023-03-11T02:05:22;98255.66;;;1.37;67.13
68807;BME280;55800;54.272;18.558;2023-03-11T02:07:53;98254.69;;;1.39;68.03
68807;BME280;55800;54.272;18.558;2023-03-11T02:10:27;98251.19;;;1.39;67.68
68807;BME280;55800;54.272;18.558;2023-03-11T02:12:58;98265.31;;;1.36;67.59
68807;BME280;55800;54.272;18.558;2023-03-11T02:15:29;98259.06;;;1.39;68.12
68807;BME280;55800;54.272;18.558;2023-03-11T02:18:00;98258.38;;;1.35;67.95
68807;BME280;55800;54.272;18.558;2023-03-11T02:20:40;98257.69;;;1.30;68.82
68807;BME280;55800;54.272;18.558;2023-03-11T02:23:13;98256.78;;;1.31;68.15
68807;BME280;55800;54.272;18.558;2023-03-11T02:25:50;98261.91;;;1.34;67.47
68807;BME280;55800;54.272;18.558;2023-03-11T02:28:22;98263.63;;;1.35;66.98
68807;BME280;55800;54.272;18.558;2023-03-11T02:30:52;98267.25;;;1.33;67.24
68807;BME280;55800;54.272;18.558;2023-03-11T02:33:27;98264.59;;;1.33;67.71
68807;BME280;55800;54.272;18.558;2023-03-11T02:35:57;98259.28;;;1.34;67.25
68807;BME280;55800;54.272;18.558;2023-03-11T02:38:27;98262.75;;;1.35;67.92
68807;BME280;55800;54.272;18.558;2023-03-11T02:40:58;98265.41;;;1.35;68.81
68807;BME280;55800;54.272;18.558;2023-03-11T02:43:36;98263.63;;;1.35;68.73
68807;BME280;55800;54.272;18.558;2023-03-11T02:46:10;98267.16;;;1.34;69.25
68807;BME280;55800;54.272;18.558;2023-03-11T02:48:41;98265.59;;;1.30;68.60
68807;BME280;55800;54.272;18.558;2023-03-11T02:51:12;98262.16;;;1.28;67.86
68807;BME280;55800;54.272;18.558;2023-03-11T02:53:46;98275.25;;;1.30;68.42
68807;BME280;55800;54.272;18.558;2023-03-11T02:56:17;98272.69;;;1.28;69.19
68807;BME280;55800;54.272;18.558;2023-03-11T02:58:48;98286.75;;;1.27;69.14
68807;BME280;55800;54.272;18.558;2023-03-11T03:01:17;98279.72;;;1.28;68.09
68807;BME280;55800;54.272;18.558;2023-03-11T03:03:49;98281.31;;;1.32;69.83
68807;BME280;55800;54.272;18.558;2023-03-11T03:06:18;98281.44;;;1.29;69.20
68807;BME280;55800;54.272;18.558;2023-03-11T03:08:50;98279.69;;;1.29;69.22
68807;BME280;55800;54.272;18.558;2023-03-11T03:11:19;98281.38;;;1.30;70.99
68807;BME280;55800;54.272;18.558;2023-03-11T03:13:50;98283.28;;;1.27;70.57
68807;BME280;55800;54.272;18.558;2023-03-11T03:16:19;98284.94;;;1.29;69.03
68807;BME280;55800;54.272;18.558;2023-03-11T03:18:49;98277.97;;;1.28;69.30
68807;BME280;55800;54.272;18.558;2023-03-11T03:21:19;98291.91;;;1.30;71.11
68807;BME280;55800;54.272;18.558;2023-03-11T03:23:49;98292.63;;;1.34;69.59
68807;BME280;55800;54.272;18.558;2023-03-11T03:26:18;98294.63;;;1.29;69.12
68807;BME280;55800;54.272;18.558;2023-03-11T03:28:50;98285.00;;;1.28;71.06
68807;BME280;55800;54.272;18.558;2023-03-11T03:31:20;98285.06;;;1.26;70.27
68807;BME280;55800;54.272;18.558;2023-03-11T03:33:49;98297.34;;;1.26;69.34
68807;BME280;55800;54.272;18.558;2023-03-11T03:36:18;98296.50;;;1.25;70.27
68807;BME280;55800;54.272;18.558;2023-03-11T03:38:55;98300.97;;;1.23;70.75
68807;BME280;55800;54.272;18.558;2023-03-11T03:41:28;98295.59;;;1.26;69.97
68807;BME280;55800;54.272;18.558;2023-03-11T03:43:59;98296.50;;;1.25;69.68
68807;BME280;55800;54.272;18.558;2023-03-11T03:46:30;98298.41;;;1.22;70.33
68807;BME280;55800;54.272;18.558;2023-03-11T03:49:00;98297.44;;;1.24;69.92
68807;BME280;55800;54.272;18.558;2023-03-11T03:51:30;98302.69;;;1.24;70.68
68807;BME280;55800;54.272;18.558;2023-03-11T03:54:14;98305.44;;;1.21;71.22
68807;BME280;55800;54.272;18.558;2023-03-11T03:56:44;98305.44;;;1.21;70.46
68807;BME280;55800;54.272;18.558;2023-03-11T03:59:15;98305.50;;;1.20;70.39
68807;BME280;55800;54.272;18.558;2023-03-11T04:01:49;98314.44;;;1.16;70.53
68807;BME280;55800;54.272;18.558;2023-03-11T04:04:20;98313.47;;;1.18;69.33
68807;BME280;55800;54.272;18.558;2023-03-11T04:06:50;98317.09;;;1.16;69.26
68807;BME280;55800;54.272;18.558;2023-03-11T04:09:20;98313.59;;;1.15;70.75
68807;BME280;55800;54.272;18.558;2023-03-11T04:11:49;98320.56;;;1.16;70.66
68807;BME280;55800;54.272;18.558;2023-03-11T04:14:20;98327.72;;;1.13;70.65
68807;BME280;55800;54.272;18.558;2023-03-11T04:16:54;98327.69;;;1.14;70.26
68807;BME280;55800;54.272;18.558;2023-03-11T04:19:24;98321.56;;;1.14;70.40
68807;BME280;55800;54.272;18.558;2023-03-11T04:21:54;98331.22;;;1.13;69.88
68807;BME280;55800;54.272;18.558;2023-03-11T04:24:25;98327.44;;;1.20;69.47
68807;BME280;55800;54.272;18.558;2023-03-11T04:26:54;98332.00;;;1.15;70.88
68807;BME280;55800;54.272;18.558;2023-03-11T04:29:25;98327.59;;;1.16;70.61
68807;BME280;55800;54.272;18.558;2023-03-11T04:31:55;98333.03;;;1.11;71.37
68807;BME280;55800;54.272;18.558;2023-03-11T04:34:25;98330.34;;;1.13;70.80
68807;BME280;55800;54.272;18.558;2023-03-11T04:36:54;98326.88;;;1.12;70.25
68807;BME280;55800;54.272;18.558;2023-03-11T04:39:29;98331.22;;;1.13;70.77
68807;BME280;55800;54.272;18.558;2023-03-11T04:41:58;98337.34;;;1.14;70.78
68807;BME280;55800;54.272;18.558;2023-03-11T04:44:35;98346.13;;;1.13;70.86
68807;BME280;55800;54.272;18.558;2023-03-11T04:47:05;98347.13;;;1.10;70.33
68807;BME280;55800;54.272;18.558;2023-03-11T04:49:36;98350.41;;;1.15;70.29
68807;BME280;55800;54.272;18.558;2023-03-11T04:52:05;98363.75;;;1.11;71.37
68807;BME280;55800;54.272;18.558;2023-03-11T04:54:35;98364.69;;;1.10;70.43
68807;BME280;55800;54.272;18.558;2023-03-11T04:57:05;98366.47;;;1.09;70.70
68807;BME280;55800;54.272;18.558;2023-03-11T04:59:37;98366.34;;;1.12;69.78
68807;BME280;55800;54.272;18.558;2023-03-11T05:02:07;98369.88;;;1.11;70.56
68807;BME280;55800;54.272;18.558;2023-03-11T05:04:45;98370.06;;;1.07;70.34
68807;BME280;55800;54.272;18.558;2023-03-11T05:07:15;98383.34;;;1.04;70.77
68807;BME280;55800;54.272;18.558;2023-03-11T05:09:45;98391.34;;;1.01;70.74
68807;BME280;55800;54.272;18.558;2023-03-11T05:12:15;98376.38;;;1.03;70.09
68807;BME280;55800;54.272;18.558;2023-03-11T05:14:50;98375.63;;;0.99;70.28
68807;BME280;55800;54.272;18.558;2023-03-11T05:17:20;98375.69;;;0.98;70.79
68807;BME280;55800;54.272;18.558;2023-03-11T05:19:54;98389.44;;;1.04;70.86
68807;BME280;55800;54.272;18.558;2023-03-11T05:22:29;98386.81;;;1.04;69.95
68807;BME280;55800;54.272;18.558;2023-03-11T05:24:59;98389.34;;;1.07;70.74
68807;BME280;55800;54.272;18.558;2023-03-11T05:27:30;98389.44;;;1.04;70.43
68807;BME280;55800;54.272;18.558;2023-03-11T05:30:00;98394.59;;;1.07;69.98
68807;BME280;55800;54.272;18.558;2023-03-11T05:32:34;98401.69;;;1.05;70.36
68807;BME280;55800;54.272;18.558;2023-03-11T05:35:06;98398.44;;;0.99;70.85
68807;BME280;55800;54.272;18.558;2023-03-11T05:37:36;98402.97;;;0.95;70.45
68807;BME280;55800;54.272;18.558;2023-03-11T05:40:08;98408.06;;;1.00;70.76
68807;BME280;55800;54.272;18.558;2023-03-11T05:42:38;98419.31;;;1.03;69.75
68807;BME280;55800;54.272;18.558;2023-03-11T05:45:12;98419.19;;;1.06;69.54
68807;BME280;55800;54.272;18.558;2023-03-11T05:47:45;98431.69;;;1.01;70.54
68807;BME280;55800;54.272;18.558;2023-03-11T05:50:16;98443.91;;;1.02;70.68
68807;BME280;55800;54.272;18.558;2023-03-11T05:52:46;98447.47;;;1.01;70.56
68807;BME280;55800;54.272;18.558;2023-03-11T05:55:17;98456.38;;;0.97;70.03
68807;BME280;55800;54.272;18.558;2023-03-11T05:57:50;98446.78;;;0.96;70.74
68807;BME280;55800;54.272;18.558;2023-03-11T06:00:25;98459.91;;;0.96;70.25
68807;BME280;55800;54.272;18.558;2023-03-11T06:02:58;98463.34;;;0.98;69.86
68807;BME280;55800;54.272;18.558;2023-03-11T06:05:28;98474.09;;;0.92;70.48
68807;BME280;55800;54.272;18.558;2023-03-11T06:07:58;98471.25;;;0.98;70.53
68807;BME280;55800;54.272;18.558;2023-03-11T06:10:28;98490.69;;;0.94;70.10
68807;BME280;55800;54.272;18.558;2023-03-11T06:12:58;98492.44;;;0.94;70.58
68807;BME280;55800;54.272;18.558;2023-03-11T06:15:39;98487.19;;;0.94;70.43
68807;BME280;55800;54.272;18.558;2023-03-11T06:18:09;98495.84;;;0.97;70.59
68807;BME280;55800;54.272;18.558;2023-03-11T06:20:38;98499.44;;;0.95;70.64
68807;BME280;55800;54.272;18.558;2023-03-11T06:23:08;98506.47;;;0.94;70.67
68807;BME280;55800;54.272;18.558;2023-03-11T06:25:37;98505.66;;;0.92;70.87
68807;BME280;55800;54.272;18.558;2023-03-11T06:28:07;98516.94;;;0.96;71.21
68807;BME280;55800;54.272;18.558;2023-03-11T06:30:38;98519.38;;;1.00;71.01
68807;BME280;55800;54.272;18.558;2023-03-11T06:33:10;98516.91;;;0.97;70.68
68807;BME280;55800;54.272;18.558;2023-03-11T06:35:42;98528.44;;;0.93;71.11
68807;BME280;55800;54.272;18.558;2023-03-11T06:38:11;98523.28;;;0.90;70.62
68807;BME280;55800;54.272;18.558;2023-03-11T06:40:40;98526.63;;;0.95;70.50
68807;BME280;55800;54.272;18.558;2023-03-11T06:43:11;98532.78;;;0.94;70.58
68807;BME280;55800;54.272;18.558;2023-03-11T06:45:44;98542.97;;;1.03;70.32
68807;BME280;55800;54.272;18.558;2023-03-11T06:48:14;98542.25;;;0.98;70.07
68807;BME280;55800;54.272;18.558;2023-03-11T06:50:45;98558.06;;;0.98;70.17
68807;BME280;55800;54.272;18.558;2023-03-11T06:53:21;98556.13;;;1.03;70.43
68807;BME280;55800;54.272;18.558;2023-03-11T06:55:58;98562.28;;;1.02;70.02
68807;BME280;55800;54.272;18.558;2023-03-11T06:58:30;98562.06;;;1.08;69.79
68807;BME280;55800;54.272;18.558;2023-03-11T07:01:03;98573.50;;;1.07;69.93
68807;BME280;55800;54.272;18.558;2023-03-11T07:03:33;98574.47;;;1.05;70.16
68807;BME280;55800;54.272;18.558;2023-03-11T07:06:04;98577.25;;;1.00;70.21
68807;BME280;55800;54.272;18.558;2023-03-11T07:08:34;98586.81;;;1.03;70.35
68807;BME280;55800;54.272;18.558;2023-03-11T07:11:06;98597.41;;;1.01;70.34
68807;BME280;55800;54.272;18.558;2023-03-11T07:13:36;98592.97;;;1.03;69.83
68807;BME280;55800;54.272;18.558;2023-03-11T07:16:10;98603.56;;;1.00;69.68
68807;BME280;55800;54.272;18.558;2023-03-11T07:18:40;98601.66;;;1.05;70.23
68807;BME280;55800;54.272;18.558;2023-03-11T07:21:13;98604.22;;;1.07;69.77
68807;BME280;55800;54.272;18.558;2023-03-11T07:23:43;98611.94;;;1.11;69.56
68807;BME280;55800;54.272;18.558;2023-03-11T07:26:14;98625.16;;;1.10;69.75
68807;BME280;55800;54.272;18.558;2023-03-11T07:28:44;98630.31;;;1.13;69.45
68807;BME280;55800;54.272;18.558;2023-03-11T07:31:19;98631.38;;;1.07;69.85
68807;BME280;55800;54.272;18.558;2023-03-11T07:33:50;98632.84;;;1.16;69.71
68807;BME280;55800;54.272;18.558;2023-03-11T07:36:20;98634.44;;;1.20;69.69
68807;BME280;55800;54.272;18.558;2023-03-11T07:38:53;98636.13;;;1.22;69.51
68807;BME280;55800;54.272;18.558;2023-03-11T07:41:24;98639.69;;;1.20;69.49
68807;BME280;55800;54.272;18.558;2023-03-11T07:43:53;98637.81;;;1.23;69.33
68807;BME280;55800;54.272;18.558;2023-03-11T07:46:26;98644.16;;;1.18;69.67
68807;BME280;55800;54.272;18.558;2023-03-11T07:48:56;98652.13;;;1.16;69.37
68807;BME280;55800;54.272;18.558;2023-03-11T07:51:26;98651.09;;;1.20;69.53
68807;BME280;55800;54.272;18.558;2023-03-11T07:54:03;98665.88;;;1.24;69.43
68807;BME280;55800;54.272;18.558;2023-03-11T07:56:34;98666.72;;;1.25;69.61
68807;BME280;55800;54.272;18.558;2023-03-11T07:59:04;98671.13;;;1.24;69.33
68807;BME280;55800;54.272;18.558;2023-03-11T08:01:35;98679.88;;;1.25;69.08
68807;BME280;55800;54.272;18.558;2023-03-11T08:04:09;98691.09;;;1.30;68.98
68807;BME280;55800;54.272;18.558;2023-03-11T08:06:45;98689.16;;;1.35;68.90
68807;BME280;55800;54.272;18.558;2023-03-11T08:09:15;98697.00;;;1.36;68.83
68807;BME280;55800;54.272;18.558;2023-03-11T08:11:45;98712.94;;;1.33;68.80
68807;BME280;55800;54.272;18.558;2023-03-11T08:14:16;98709.50;;;1.31;69.07
68807;BME280;55800;54.272;18.558;2023-03-11T08:16:47;98718.72;;;1.43;68.89
68807;BME280;55800;54.272;18.558;2023-03-11T08:19:16;98725.66;;;1.45;68.41
68807;BME280;55800;54.272;18.558;2023-03-11T08:21:46;98726.66;;;1.41;68.76
68807;BME280;55800;54.272;18.558;2023-03-11T08:24:15;98726.66;;;1.41;68.68
68807;BME280;55800;54.272;18.558;2023-03-11T08:26:45;98736.28;;;1.42;68.43
68807;BME280;55800;54.272;18.558;2023-03-11T08:29:14;98748.53;;;1.43;68.40
68807;BME280;55800;54.272;18.558;2023-03-11T08:31:43;98751.16;;;1.43;68.41
68807;BME280;55800;54.272;18.558;2023-03-11T08:34:14;98744.97;;;1.44;68.58
68807;BME280;55800;54.272;18.558;2023-03-11T08:36:44;98752.78;;;1.47;68.45
68807;BME280;55800;54.272;18.558;2023-03-11T08:39:13;98765.00;;;1.48;68.29
68807;BME280;55800;54.272;18.558;2023-03-11T08:41:43;98763.25;;;1.49;68.54
68807;BME280;55800;54.272;18.558;2023-03-11T08:44:12;98761.47;;;1.49;68.65
68807;BME280;55800;54.272;18.558;2023-03-11T08:46:42;98766.44;;;1.58;68.25
68807;BME280;55800;54.272;18.558;2023-03-11T08:49:13;98775.13;;;1.61;68.20
68807;BME280;55800;54.272;18.558;2023-03-11T08:51:43;98771.34;;;1.68;67.82
68807;BME280;55800;54.272;18.558;2023-03-11T08:54:12;98776.75;;;1.65;68.14
68807;BME280;55800;54.272;18.558;2023-03-11T08:56:42;98776.59;;;1.69;68.20
68807;BME280;55800;54.272;18.558;2023-03-11T08:59:11;98777.16;;;1.77;67.97
68807;BME280;55800;54.272;18.558;2023-03-11T09:01:41;98783.25;;;1.79;67.95
68807;BME280;55800;54.272;18.558;2023-03-11T09:04:10;98782.28;;;1.82;67.87
68807;BME280;55800;54.272;18.558;2023-03-11T09:06:45;98791.78;;;1.86;67.76
68807;BME280;55800;54.272;18.558;2023-03-11T09:09:15;98798.75;;;1.87;67.68
68807;BME280;55800;54.272;18.558;2023-03-11T09:11:47;98804.09;;;1.85;67.48
68807;BME280;55800;54.272;18.558;2023-03-11T09:14:17;98819.16;;;1.82;67.53
68807;BME280;55800;54.272;18.558;2023-03-11T09:16:46;98827.06;;;1.82;67.36
68807;BME280;55800;54.272;18.558;2023-03-11T09:19:15;98833.28;;;1.79;67.62
68807;BME280;55800;54.272;18.558;2023-03-11T09:21:47;98835.03;;;1.80;67.63
68807;BME280;55800;54.272;18.558;2023-03-11T09:24:16;98845.38;;;1.85;67.41
68807;BME280;55800;54.272;18.558;2023-03-11T09:26:46;98851.34;;;1.90;67.11
68807;BME280;55800;54.272;18.558;2023-03-11T09:29:16;98848.72;;;1.90;67.25
68807;BME280;55800;54.272;18.558;2023-03-11T09:31:46;98859.25;;;1.90;67.35
68807;BME280;55800;54.272;18.558;2023-03-11T09:34:15;98856.53;;;1.93;67.06
68807;BME280;55800;54.272;18.558;2023-03-11T09:36:46;98872.13;;;1.99;67.12
68807;BME280;55800;54.272;18.558;2023-03-11T09:39:15;98872.13;;;1.99;66.97
68807;BME280;55800;54.272;18.558;2023-03-11T09:41:51;98876.63;;;1.95;66.70
68807;BME280;55800;54.272;18.558;2023-03-11T09:44:29;98877.47;;;1.96;66.96
68807;BME280;55800;54.272;18.558;2023-03-11T09:47:28;98895.03;;;1.97;66.89
68807;BME280;55800;54.272;18.558;2023-03-11T09:50:29;98900.19;;;2.00;66.53
68807;BME280;55800;54.272;18.558;2023-03-11T09:53:17;98890.50;;;2.00;66.64
68807;BME280;55800;54.272;18.558;2023-03-11T09:55:52;98898.31;;;2.03;66.70
68807;BME280;55800;54.272;18.558;2023-03-11T09:58:29;98899.78;;;2.10;66.28
68807;BME280;55800;54.272;18.558;2023-03-11T10:01:11;98905.13;;;2.09;66.44
68807;BME280;55800;54.272;18.558;2023-03-11T10:03:44;98906.75;;;2.13;66.37
68807;BME280;55800;54.272;18.558;2023-03-11T10:06:18;98915.44;;;2.15;66.30
68807;BME280;55800;54.272;18.558;2023-03-11T10:08:58;98926.94;;;2.14;66.48
68807;BME280;55800;54.272;18.558;2023-03-11T10:11:42;98926.00;;;2.15;66.68
68807;BME280;55800;54.272;18.558;2023-03-11T10:14:26;98929.44;;;2.17;66.52
68807;BME280;55800;54.272;18.558;2023-03-11T10:17:03;98938.16;;;2.19;66.40
68807;BME280;55800;54.272;18.558;2023-03-11T10:19:38;98945.84;;;2.25;65.98
68807;BME280;55800;54.272;18.558;2023-03-11T10:22:13;98953.75;;;2.25;66.03
68807;BME280;55800;54.272;18.558;2023-03-11T10:25:00;98953.97;;;2.19;66.04
68807;BME280;55800;54.272;18.558;2023-03-11T10:27:41;98955.00;;;2.15;65.65
68807;BME280;55800;54.272;18.558;2023-03-11T10:30:22;98960.97;;;2.20;65.90
68807;BME280;55800;54.272;18.558;2023-03-11T10:32:57;98961.84;;;2.20;65.40
68807;BME280;55800;54.272;18.558;2023-03-11T10:35:33;98963.56;;;2.21;65.86
68807;BME280;55800;54.272;18.558;2023-03-11T10:38:10;98968.72;;;2.24;65.45
68807;BME280;55800;54.272;18.558;2023-03-11T10:40:44;98970.34;;;2.28;65.51
68807;BME280;55800;54.272;18.558;2023-03-11T10:43:16;98972.81;;;2.33;65.16
68807;BME280;55800;54.272;18.558;2023-03-11T10:45:48;98978.84;;;2.36;64.79
68807;BME280;55800;54.272;18.558;2023-03-11T10:48:20;98975.25;;;2.39;64.83
68807;BME280;55800;54.272;18.558;2023-03-11T10:50:54;98978.63;;;2.43;64.81
68807;BME280;55800;54.272;18.558;2023-03-11T10:53:25;98976.63;;;2.49;64.78
68807;BME280;55800;54.272;18.558;2023-03-11T10:55:58;98982.63;;;2.54;64.24
68807;BME280;55800;54.272;18.558;2023-03-11T10:58:29;98982.56;;;2.56;64.23
68807;BME280;55800;54.272;18.558;2023-03-11T11:01:03;98990.47;;;2.56;63.96
68807;BME280;55800;54.272;18.558;2023-03-11T11:03:34;98995.53;;;2.62;64.29
68807;BME280;55800;54.272;18.558;2023-03-11T11:06:05;98999.84;;;2.64;64.12
68807;BME280;55800;54.272;18.558;2023-03-11T11:08:36;99001.53;;;2.65;63.73
68807;BME280;55800;54.272;18.558;2023-03-11T11:11:20;99008.31;;;2.72;64.17
68807;BME280;55800;54.272;18.558;2023-03-11T11:13:56;99018.63;;;2.80;63.60
68807;BME280;55800;54.272;18.558;2023-03-11T11:16:27;99012.47;;;2.79;63.28
68807;BME280;55800;54.272;18.558;2023-03-11T11:19:01;99022.22;;;2.77;63.18
68807;BME280;55800;54.272;18.558;2023-03-11T11:21:33;99029.44;;;2.72;62.97
68807;BME280;55800;54.272;18.558;2023-03-11T11:24:17;99037.28;;;2.74;63.43
68807;BME280;55800;54.272;18.558;2023-03-11T11:27:12;99031.19;;;2.73;63.49
68807;BME280;55800;54.272;18.558;2023-03-11T11:29:43;99041.59;;;2.76;63.49
68807;BME280;55800;54.272;18.558;2023-03-11T11:32:20;99042.63;;;2.72;63.34
68807;BME280;55800;54.272;18.558;2023-03-11T11:35:00;99047.25;;;2.66;63.05
68807;BME280;55800;54.272;18.558;2023-03-11T11:37:39;99052.59;;;2.64;63.38
68807;BME280;55800;54.272;18.558;2023-03-11T11:40:26;99056.47;;;2.54;63.52
68807;BME280;55800;54.272;18.558;2023-03-11T11:43:02;99067.06;;;2.53;63.13
68807;BME280;55800;54.272;18.558;2023-03-11T11:45:36;99071.66;;;2.46;63.22
68807;BME280;55800;54.272;18.558;2023-03-11T11:48:13;99073.63;;;2.41;63.45
68807;BME280;55800;54.272;18.558;2023-03-11T11:50:47;99074.53;;;2.40;63.32
68807;BME280;55800;54.272;18.558;2023-03-11T11:53:27;99074.63;;;2.37;63.33
68807;BME280;55800;54.272;18.558;2023-03-11T11:56:01;99079.09;;;2.35;63.49
68807;BME280;55800;54.272;18.558;2023-03-11T11:58:32;99076.25;;;2.41;63.79
68807;BME280;55800;54.272;18.558;2023-03-11T12:01:12;99090.97;;;2.48;63.43
68807;BME280;55800;54.272;18.558;2023-03-11T12:06:53;99102.94;;;2.58;62.55
68807;BME280;55800;54.272;18.558;2023-03-11T12:09:31;99108.91;;;2.63;61.89
68807;BME280;55800;54.272;18.558;2023-03-11T12:12:12;99091.06;;;2.70;62.49
68807;BME280;55800;54.272;18.558;2023-03-11T12:14:56;99113.78;;;2.75;62.76
68807;BME280;55800;54.272;18.558;2023-03-11T12:17:31;99125.81;;;2.82;62.43
68807;BME280;55800;54.272;18.558;2023-03-11T12:20:11;99118.72;;;2.84;61.80
68807;BME280;55800;54.272;18.558;2023-03-11T12:26:00;99132.78;;;2.85;62.17
68807;BME280;55800;54.272;18.558;2023-03-11T12:28:37;99134.22;;;2.93;62.57
68807;BME280;55800;54.272;18.558;2023-03-11T12:31:11;99131.66;;;2.92;61.32
68807;BME280;55800;54.272;18.558;2023-03-11T12:33:43;99146.69;;;2.90;61.74
68807;BME280;55800;54.272;18.558;2023-03-11T12:36:23;99149.16;;;2.94;62.52
68807;BME280;55800;54.272;18.558;2023-03-11T12:38:54;99147.28;;;2.98;61.61
68807;BME280;55800;54.272;18.558;2023-03-11T12:41:32;99158.59;;;3.01;62.05
68807;BME280;55800;54.272;18.558;2023-03-11T12:47:19;99157.19;;;2.91;61.03
68807;BME280;55800;54.272;18.558;2023-03-11T12:49:50;99153.81;;;2.86;61.70
68807;BME280;55800;54.272;18.558;2023-03-11T12:52:27;99166.22;;;2.84;61.43
68807;BME280;55800;54.272;18.558;2023-03-11T12:58:44;99181.50;;;2.75;62.31
68807;BME280;55800;54.272;18.558;2023-03-11T13:01:43;99180.63;;;2.74;62.04
68807;BME280;55800;54.272;18.558;2023-03-11T13:04:32;99174.31;;;2.80;61.96
68807;BME280;55800;54.272;18.558;2023-03-11T13:07:35;99178.59;;;2.82;62.40
68807;BME280;55800;54.272;18.558;2023-03-11T13:10:15;99190.97;;;2.80;62.06
68807;BME280;55800;54.272;18.558;2023-03-11T13:12:47;99196.19;;;2.83;62.06
68807;BME280;55800;54.272;18.558;2023-03-11T13:15:35;99201.59;;;2.79;61.47
68807;BME280;55800;54.272;18.558;2023-03-11T13:18:21;99207.84;;;2.76;61.89
68807;BME280;55800;54.272;18.558;2023-03-11T13:20:55;99200.03;;;2.73;61.81
68807;BME280;55800;54.272;18.558;2023-03-11T13:23:30;99213.38;;;2.69;61.59
68807;BME280;55800;54.272;18.558;2023-03-11T13:29:28;99233.16;;;2.56;60.45
68807;BME280;55800;54.272;18.558;2023-03-11T13:32:24;99227.06;;;2.54;61.03
68807;BME280;55800;54.272;18.558;2023-03-11T13:35:11;99226.13;;;2.55;61.32
68807;BME280;55800;54.272;18.558;2023-03-11T13:38:10;99235.72;;;2.57;60.71
68807;BME280;55800;54.272;18.558;2023-03-11T13:40:44;99244.56;;;2.56;60.83
68807;BME280;55800;54.272;18.558;2023-03-11T13:43:16;99243.63;;;2.57;60.96
68807;BME280;55800;54.272;18.558;2023-03-11T13:45:49;99248.00;;;2.58;61.07
68807;BME280;55800;54.272;18.558;2023-03-11T13:48:25;99237.41;;;2.60;60.89
68807;BME280;55800;54.272;18.558;2023-03-11T13:51:00;99254.81;;;2.65;60.64